sensor_id;sensor_type;location;lat;lon;timestamp;temperature;humidity
1948;DHT22;974;52.400;9.818;2023-06-26T00:01:15;20.30;99.90
1948;DHT22;974;52.400;9.818;2023-06-26T00:03:40;20.30;99.90
1948;DHT22;974;52.400;9.818;2023-06-26T00:06:06;20.30;99.90
1948;DHT22;974;52.400;9.818;2023-06-26T00:08:31;20.20;99.90
1948;DHT22;974;52.400;9.818;2023-06-26T00:10:57;20.20;99.90
1948;DHT22;974;52.400;9.818;2023-06-26T00:13:23;20.30;99.90
1948;DHT22;974;52.400;9.818;2023-06-26T00:15:49;20.20;99.90
1948;DHT22;974;52.400;9.818;2023-06-26T00:18:15;20.20;99.90
1948;DHT22;974;52.400;9.818;2023-06-26T00:20:41;20.20;99.90
1948;DHT22;974;52.400;9.818;2023-06-26T00:23:06;20.20;99.90
1948;DHT22;974;52.400;9.818;2023-06-26T00:25:33;20.20;99.90
1948;DHT22;974;52.400;9.818;2023-06-26T00:27:58;20.20;99.90
1948;DHT22;974;52.400;9.818;2023-06-26T00:30:24;20.10;99.90
1948;DHT22;974;52.400;9.818;2023-06-26T00:32:49;20.10;99.90
1948;DHT22;974;52.400;9.818;2023-06-26T00:35:16;20.10;99.90
1948;DHT22;974;52.400;9.818;2023-06-26T00:37:41;20.10;99.90
1948;DHT22;974;52.400;9.818;2023-06-26T00:40:07;20.10;99.90
1948;DHT22;974;52.400;9.818;2023-06-26T00:42:33;20.10;99.90
1948;DHT22;974;52.400;9.818;2023-06-26T00:44:58;20.10;99.90
1948;DHT22;974;52.400;9.818;2023-06-26T00:47:24;20.00;99.90
1948;DHT22;974;52.400;9.818;2023-06-26T00:49:50;20.00;99.90
1948;DHT22;974;52.400;9.818;2023-06-26T00:52:16;20.00;99.90
1948;DHT22;974;52.400;9.818;2023-06-26T00:54:42;19.90;99.90
1948;DHT22;974;52.400;9.818;2023-06-26T00:57:08;19.90;99.90
1948;DHT22;974;52.400;9.818;2023-06-26T00:59:34;19.90;99.90
1948;DHT22;974;52.400;9.818;2023-06-26T01:02:00;19.90;99.90
1948;DHT22;974;52.400;9.818;2023-06-26T01:04:26;19.90;99.90
1948;DHT22;974;52.400;9.818;2023-06-26T01:06:52;19.80;99.90
1948;DHT22;974;52.400;9.818;2023-06-26T01:09:19;19.80;99.90
1948;DHT22;974;52.400;9.818;2023-06-26T01:11:45;19.70;99.90
1948;DHT22;974;52.400;9.818;2023-06-26T01:14:11;19.70;99.90
1948;DHT22;974;52.400;9.818;2023-06-26T01:16:38;19.70;99.90
1948;DHT22;974;52.400;9.818;2023-06-26T01:19:11;19.70;99.90
1948;DHT22;974;52.400;9.818;2023-06-26T01:21:42;19.70;99.90
1948;DHT22;974;52.400;9.818;2023-06-26T01:24:17;19.60;99.90
1948;DHT22;974;52.400;9.818;2023-06-26T01:26:49;19.60;99.90
1948;DHT22;974;52.400;9.818;2023-06-26T01:29:16;19.60;99.90
1948;DHT22;974;52.400;9.818;2023-06-26T01:31:42;19.60;99.90
1948;DHT22;974;52.400;9.818;2023-06-26T01:34:09;19.60;99.90
1948;DHT22;974;52.400;9.818;2023-06-26T01:36:35;19.50;99.90
1948;DHT22;974;52.400;9.818;2023-06-26T01:39:02;19.50;99.90
1948;DHT22;974;52.400;9.818;2023-06-26T01:41:28;19.50;99.90
1948;DHT22;974;52.400;9.818;2023-06-26T01:44:18;19.50;99.90
1948;DHT22;974;52.400;9.818;2023-06-26T01:47:04;19.40;99.90
1948;DHT22;974;52.400;9.818;2023-06-26T01:49:50;19.40;99.90
1948;DHT22;974;52.400;9.818;2023-06-26T01:52:25;19.40;99.90
1948;DHT22;974;52.400;9.818;2023-06-26T01:57:40;19.40;99.90
1948;DHT22;974;52.400;9.818;2023-06-26T02:00:08;19.40;99.90
1948;DHT22;974;52.400;9.818;2023-06-26T02:02:36;19.40;99.90
1948;DHT22;974;52.400;9.818;2023-06-26T02:05:02;19.40;99.90
1948;DHT22;974;52.400;9.818;2023-06-26T02:07:27;19.50;99.90
1948;DHT22;974;52.400;9.818;2023-06-26T02:09:53;19.40;99.90
1948;DHT22;974;52.400;9.818;2023-06-26T02:12:19;19.40;99.90
1948;DHT22;974;52.400;9.818;2023-06-26T02:14:44;19.40;99.90
1948;DHT22;974;52.400;9.818;2023-06-26T02:17:10;19.40;99.90
1948;DHT22;974;52.400;9.818;2023-06-26T02:19:35;19.40;99.90
1948;DHT22;974;52.400;9.818;2023-06-26T02:22:01;19.40;99.90
1948;DHT22;974;52.400;9.818;2023-06-26T02:24:26;19.30;99.90
1948;DHT22;974;52.400;9.818;2023-06-26T02:26:56;19.30;99.90
1948;DHT22;974;52.400;9.818;2023-06-26T02:29:22;19.20;99.90
1948;DHT22;974;52.400;9.818;2023-06-26T02:31:48;19.20;99.90
1948;DHT22;974;52.400;9.818;2023-06-26T02:34:14;19.20;99.90
1948;DHT22;974;52.400;9.818;2023-06-26T02:36:39;19.10;99.90
1948;DHT22;974;52.400;9.818;2023-06-26T02:39:05;19.10;99.90
1948;DHT22;974;52.400;9.818;2023-06-26T02:41:31;19.10;99.90
1948;DHT22;974;52.400;9.818;2023-06-26T02:43:56;19.10;99.90
1948;DHT22;974;52.400;9.818;2023-06-26T02:46:22;19.10;99.90
1948;DHT22;974;52.400;9.818;2023-06-26T02:48:47;19.10;99.90
1948;DHT22;974;52.400;9.818;2023-06-26T02:51:13;19.10;99.90
1948;DHT22;974;52.400;9.818;2023-06-26T02:53:39;19.10;99.90
1948;DHT22;974;52.400;9.818;2023-06-26T02:56:04;19.00;99.90
1948;DHT22;974;52.400;9.818;2023-06-26T02:58:30;19.00;99.90
1948;DHT22;974;52.400;9.818;2023-06-26T03:00:55;19.00;99.90
1948;DHT22;974;52.400;9.818;2023-06-26T03:03:21;19.00;99.90
1948;DHT22;974;52.400;9.818;2023-06-26T03:05:47;19.00;99.90
1948;DHT22;974;52.400;9.818;2023-06-26T03:08:12;19.00;99.90
1948;DHT22;974;52.400;9.818;2023-06-26T03:10:38;19.00;99.90
1948;DHT22;974;52.400;9.818;2023-06-26T03:13:03;19.00;99.90
1948;DHT22;974;52.400;9.818;2023-06-26T03:15:29;19.00;99.90
1948;DHT22;974;52.400;9.818;2023-06-26T03:17:54;19.00;99.90
1948;DHT22;974;52.400;9.818;2023-06-26T03:20:19;19.00;99.90
1948;DHT22;974;52.400;9.818;2023-06-26T03:22:45;19.00;99.90
1948;DHT22;974;52.400;9.818;2023-06-26T03:25:10;19.10;99.90
1948;DHT22;974;52.400;9.818;2023-06-26T03:27:36;19.10;99.90
1948;DHT22;974;52.400;9.818;2023-06-26T03:30:01;19.10;99.90
1948;DHT22;974;52.400;9.818;2023-06-26T03:32:27;19.10;99.90
1948;DHT22;974;52.400;9.818;2023-06-26T03:34:52;19.10;99.90
1948;DHT22;974;52.400;9.818;2023-06-26T03:37:18;19.10;99.90
1948;DHT22;974;52.400;9.818;2023-06-26T03:39:44;19.10;99.90
1948;DHT22;974;52.400;9.818;2023-06-26T03:42:09;19.10;99.90
1948;DHT22;974;52.400;9.818;2023-06-26T03:44:35;19.10;99.90
1948;DHT22;974;52.400;9.818;2023-06-26T03:47:00;19.10;99.90
1948;DHT22;974;52.400;9.818;2023-06-26T03:49:25;19.10;99.90
1948;DHT22;974;52.400;9.818;2023-06-26T03:51:51;19.10;99.90
1948;DHT22;974;52.400;9.818;2023-06-26T03:54:16;19.10;99.90
1948;DHT22;974;52.400;9.818;2023-06-26T03:56:42;19.10;99.90
1948;DHT22;974;52.400;9.818;2023-06-26T03:59:07;19.20;99.90
1948;DHT22;974;52.400;9.818;2023-06-26T04:01:36;19.10;99.90
1948;DHT22;974;52.400;9.818;2023-06-26T04:04:01;19.10;99.90
1948;DHT22;974;52.400;9.818;2023-06-26T04:06:27;19.20;99.90
1948;DHT22;974;52.400;9.818;2023-06-26T04:08:52;19.20;99.90
1948;DHT22;974;52.400;9.818;2023-06-26T04:11:17;19.20;99.90
1948;DHT22;974;52.400;9.818;2023-06-26T04:13:43;19.20;99.90
1948;DHT22;974;52.400;9.818;2023-06-26T04:16:08;19.30;99.90
1948;DHT22;974;52.400;9.818;2023-06-26T04:18:36;19.30;99.90
1948;DHT22;974;52.400;9.818;2023-06-26T04:21:10;19.30;99.90
1948;DHT22;974;52.400;9.818;2023-06-26T04:23:37;19.40;99.90
1948;DHT22;974;52.400;9.818;2023-06-26T04:26:04;19.40;99.90
1948;DHT22;974;52.400;9.818;2023-06-26T04:28:33;19.50;99.90
1948;DHT22;974;52.400;9.818;2023-06-26T04:31:02;19.50;99.90
1948;DHT22;974;52.400;9.818;2023-06-26T04:33:31;19.60;99.90
1948;DHT22;974;52.400;9.818;2023-06-26T04:35:57;19.60;99.90
1948;DHT22;974;52.400;9.818;2023-06-26T04:38:22;19.60;99.90
1948;DHT22;974;52.400;9.818;2023-06-26T04:40:48;19.70;99.90
1948;DHT22;974;52.400;9.818;2023-06-26T04:43:14;19.70;99.90
1948;DHT22;974;52.400;9.818;2023-06-26T04:45:40;19.80;99.90
1948;DHT22;974;52.400;9.818;2023-06-26T04:48:05;19.80;99.90
1948;DHT22;974;52.400;9.818;2023-06-26T04:50:31;19.90;99.90
1948;DHT22;974;52.400;9.818;2023-06-26T04:52:57;19.90;99.90
1948;DHT22;974;52.400;9.818;2023-06-26T04:55:24;20.00;99.90
1948;DHT22;974;52.400;9.818;2023-06-26T04:57:50;20.00;99.90
1948;DHT22;974;52.400;9.818;2023-06-26T05:00:16;20.10;99.90
1948;DHT22;974;52.400;9.818;2023-06-26T05:02:41;20.10;99.90
1948;DHT22;974;52.400;9.818;2023-06-26T05:05:07;20.10;99.90
1948;DHT22;974;52.400;9.818;2023-06-26T05:07:33;20.10;99.90
1948;DHT22;974;52.400;9.818;2023-06-26T05:09:58;20.10;99.90
1948;DHT22;974;52.400;9.818;2023-06-26T05:12:24;20.20;99.90
1948;DHT22;974;52.400;9.818;2023-06-26T05:14:49;20.20;99.90
1948;DHT22;974;52.400;9.818;2023-06-26T05:17:15;20.20;99.90
1948;DHT22;974;52.400;9.818;2023-06-26T05:19:40;20.30;99.90
1948;DHT22;974;52.400;9.818;2023-06-26T05:22:06;20.30;99.90
1948;DHT22;974;52.400;9.818;2023-06-26T05:24:37;20.40;99.90
1948;DHT22;974;52.400;9.818;2023-06-26T05:27:03;20.40;99.90
1948;DHT22;974;52.400;9.818;2023-06-26T05:29:30;20.50;99.90
1948;DHT22;974;52.400;9.818;2023-06-26T05:31:57;20.50;99.90
1948;DHT22;974;52.400;9.818;2023-06-26T05:34:23;20.60;99.90
1948;DHT22;974;52.400;9.818;2023-06-26T05:36:57;20.60;99.90
1948;DHT22;974;52.400;9.818;2023-06-26T05:39:23;20.70;99.90
1948;DHT22;974;52.400;9.818;2023-06-26T05:41:50;20.80;99.90
1948;DHT22;974;52.400;9.818;2023-06-26T05:44:15;20.80;99.90
1948;DHT22;974;52.400;9.818;2023-06-26T05:46:41;20.90;99.90
1948;DHT22;974;52.400;9.818;2023-06-26T05:49:06;20.90;99.90
1948;DHT22;974;52.400;9.818;2023-06-26T05:51:32;21.00;99.90
1948;DHT22;974;52.400;9.818;2023-06-26T05:53:58;21.10;99.90
1948;DHT22;974;52.400;9.818;2023-06-26T05:56:24;21.30;99.90
1948;DHT22;974;52.400;9.818;2023-06-26T05:58:50;21.30;99.90
1948;DHT22;974;52.400;9.818;2023-06-26T06:01:17;21.40;99.90
1948;DHT22;974;52.400;9.818;2023-06-26T06:03:42;21.50;99.90
1948;DHT22;974;52.400;9.818;2023-06-26T06:06:08;21.60;99.90
1948;DHT22;974;52.400;9.818;2023-06-26T06:08:33;21.70;99.90
1948;DHT22;974;52.400;9.818;2023-06-26T06:11:00;21.80;99.90
1948;DHT22;974;52.400;9.818;2023-06-26T06:13:26;21.90;99.90
1948;DHT22;974;52.400;9.818;2023-06-26T06:15:51;22.00;99.90
1948;DHT22;974;52.400;9.818;2023-06-26T06:18:17;22.00;99.90
1948;DHT22;974;52.400;9.818;2023-06-26T06:20:42;22.00;99.90
1948;DHT22;974;52.400;9.818;2023-06-26T06:23:08;22.10;99.90
1948;DHT22;974;52.400;9.818;2023-06-26T06:25:33;22.10;99.90
1948;DHT22;974;52.400;9.818;2023-06-26T06:27:59;22.20;99.90
1948;DHT22;974;52.400;9.818;2023-06-26T06:30:24;22.10;99.90
1948;DHT22;974;52.400;9.818;2023-06-26T06:32:50;22.20;99.90
1948;DHT22;974;52.400;9.818;2023-06-26T06:35:20;22.10;99.90
1948;DHT22;974;52.400;9.818;2023-06-26T06:37:46;22.20;99.90
1948;DHT22;974;52.400;9.818;2023-06-26T06:40:12;22.20;99.90
1948;DHT22;974;52.400;9.818;2023-06-26T06:42:37;22.30;99.90
1948;DHT22;974;52.400;9.818;2023-06-26T06:45:03;22.30;99.90
1948;DHT22;974;52.400;9.818;2023-06-26T06:47:30;22.40;99.90
1948;DHT22;974;52.400;9.818;2023-06-26T06:49:55;22.50;99.90
1948;DHT22;974;52.400;9.818;2023-06-26T06:52:21;22.60;99.90
1948;DHT22;974;52.400;9.818;2023-06-26T06:54:54;22.60;99.90
1948;DHT22;974;52.400;9.818;2023-06-26T06:57:21;22.70;99.90
1948;DHT22;974;52.400;9.818;2023-06-26T06:59:47;22.80;99.90
1948;DHT22;974;52.400;9.818;2023-06-26T07:02:14;22.80;99.90
1948;DHT22;974;52.400;9.818;2023-06-26T07:04:39;22.90;99.90
1948;DHT22;974;52.400;9.818;2023-06-26T07:07:05;22.80;99.90
1948;DHT22;974;52.400;9.818;2023-06-26T07:09:30;22.90;99.90
1948;DHT22;974;52.400;9.818;2023-06-26T07:11:56;22.90;99.90
1948;DHT22;974;52.400;9.818;2023-06-26T07:14:21;23.00;99.90
1948;DHT22;974;52.400;9.818;2023-06-26T07:16:47;23.10;99.90
1948;DHT22;974;52.400;9.818;2023-06-26T07:19:12;23.00;99.90
1948;DHT22;974;52.400;9.818;2023-06-26T07:21:37;23.10;99.90
1948;DHT22;974;52.400;9.818;2023-06-26T07:24:03;23.10;99.90
1948;DHT22;974;52.400;9.818;2023-06-26T07:26:28;23.20;99.90
1948;DHT22;974;52.400;9.818;2023-06-26T07:28:54;23.20;99.90
1948;DHT22;974;52.400;9.818;2023-06-26T07:31:22;23.20;99.90
1948;DHT22;974;52.400;9.818;2023-06-26T07:33:47;23.30;99.90
1948;DHT22;974;52.400;9.818;2023-06-26T07:36:12;23.40;99.90
1948;DHT22;974;52.400;9.818;2023-06-26T07:38:38;23.50;99.90
1948;DHT22;974;52.400;9.818;2023-06-26T07:41:04;23.50;99.90
1948;DHT22;974;52.400;9.818;2023-06-26T07:43:29;23.60;99.90
1948;DHT22;974;52.400;9.818;2023-06-26T07:45:54;23.80;99.90
1948;DHT22;974;52.400;9.818;2023-06-26T07:48:24;23.80;99.90
1948;DHT22;974;52.400;9.818;2023-06-26T07:50:49;23.90;99.90
1948;DHT22;974;52.400;9.818;2023-06-26T07:53:15;24.00;99.90
1948;DHT22;974;52.400;9.818;2023-06-26T07:55:40;24.10;99.90
1948;DHT22;974;52.400;9.818;2023-06-26T07:58:06;24.20;99.90
1948;DHT22;974;52.400;9.818;2023-06-26T08:00:32;24.20;99.90
1948;DHT22;974;52.400;9.818;2023-06-26T08:02:57;24.20;99.90
1948;DHT22;974;52.400;9.818;2023-06-26T08:05:23;24.30;99.90
1948;DHT22;974;52.400;9.818;2023-06-26T08:07:48;24.30;99.90
1948;DHT22;974;52.400;9.818;2023-06-26T08:10:14;24.40;99.90
1948;DHT22;974;52.400;9.818;2023-06-26T08:12:39;24.40;99.90
1948;DHT22;974;52.400;9.818;2023-06-26T08:15:08;24.50;99.90
1948;DHT22;974;52.400;9.818;2023-06-26T08:17:35;24.50;99.90
1948;DHT22;974;52.400;9.818;2023-06-26T08:20:01;24.60;99.90
1948;DHT22;974;52.400;9.818;2023-06-26T08:22:26;24.60;99.90
1948;DHT22;974;52.400;9.818;2023-06-26T08:24:52;24.70;99.90
1948;DHT22;974;52.400;9.818;2023-06-26T08:27:18;24.70;99.90
1948;DHT22;974;52.400;9.818;2023-06-26T08:29:43;24.80;99.90
1948;DHT22;974;52.400;9.818;2023-06-26T08:32:09;24.80;99.90
1948;DHT22;974;52.400;9.818;2023-06-26T08:34:34;24.90;99.90
1948;DHT22;974;52.400;9.818;2023-06-26T08:36:59;25.00;99.90
1948;DHT22;974;52.400;9.818;2023-06-26T08:39:25;25.00;99.90
1948;DHT22;974;52.400;9.818;2023-06-26T08:41:50;25.10;99.90
1948;DHT22;974;52.400;9.818;2023-06-26T08:44:16;25.10;99.90
1948;DHT22;974;52.400;9.818;2023-06-26T08:46:42;25.20;99.90
1948;DHT22;974;52.400;9.818;2023-06-26T08:49:18;25.20;99.90
1948;DHT22;974;52.400;9.818;2023-06-26T08:51:51;25.30;99.90
1948;DHT22;974;52.400;9.818;2023-06-26T08:54:20;25.40;99.90
1948;DHT22;974;52.400;9.818;2023-06-26T08:56:49;25.40;99.90
1948;DHT22;974;52.400;9.818;2023-06-26T08:59:15;25.60;99.90
1948;DHT22;974;52.400;9.818;2023-06-26T09:01:41;25.60;99.90
1948;DHT22;974;52.400;9.818;2023-06-26T09:04:07;25.70;99.90
1948;DHT22;974;52.400;9.818;2023-06-26T09:06:33;25.70;99.90
1948;DHT22;974;52.400;9.818;2023-06-26T09:08:59;25.80;99.90
1948;DHT22;974;52.400;9.818;2023-06-26T09:11:24;25.80;99.90
1948;DHT22;974;52.400;9.818;2023-06-26T09:13:50;25.90;99.90
1948;DHT22;974;52.400;9.818;2023-06-26T09:16:17;25.90;99.90
1948;DHT22;974;52.400;9.818;2023-06-26T09:18:42;25.90;99.90
1948;DHT22;974;52.400;9.818;2023-06-26T09:21:09;25.90;99.90
1948;DHT22;974;52.400;9.818;2023-06-26T09:23:35;25.90;99.90
1948;DHT22;974;52.400;9.818;2023-06-26T09:26:07;25.90;99.90
1948;DHT22;974;52.400;9.818;2023-06-26T09:28:34;25.90;99.90
1948;DHT22;974;52.400;9.818;2023-06-26T09:31:04;25.90;99.90
1948;DHT22;974;52.400;9.818;2023-06-26T09:33:34;25.90;99.90
1948;DHT22;974;52.400;9.818;2023-06-26T09:36:01;25.90;99.90
1948;DHT22;974;52.400;9.818;2023-06-26T09:38:26;25.90;99.90
1948;DHT22;974;52.400;9.818;2023-06-26T09:40:52;25.90;99.90
1948;DHT22;974;52.400;9.818;2023-06-26T09:43:18;26.00;99.90
1948;DHT22;974;52.400;9.818;2023-06-26T09:45:44;26.10;99.90
1948;DHT22;974;52.400;9.818;2023-06-26T09:48:10;26.10;99.90
1948;DHT22;974;52.400;9.818;2023-06-26T09:50:37;26.10;99.90
1948;DHT22;974;52.400;9.818;2023-06-26T09:53:13;26.00;99.90
1948;DHT22;974;52.400;9.818;2023-06-26T09:55:43;26.00;99.90
1948;DHT22;974;52.400;9.818;2023-06-26T09:58:11;25.70;99.90
1948;DHT22;974;52.400;9.818;2023-06-26T10:00:41;25.60;99.90
1948;DHT22;974;52.400;9.818;2023-06-26T10:03:08;25.50;99.90
1948;DHT22;974;52.400;9.818;2023-06-26T10:05:33;25.50;99.90
1948;DHT22;974;52.400;9.818;2023-06-26T10:07:59;25.40;99.90
1948;DHT22;974;52.400;9.818;2023-06-26T10:10:27;25.30;99.90
1948;DHT22;974;52.400;9.818;2023-06-26T10:12:57;25.20;99.90
1948;DHT22;974;52.400;9.818;2023-06-26T10:15:25;25.20;99.90
1948;DHT22;974;52.400;9.818;2023-06-26T10:17:56;25.10;99.90
1948;DHT22;974;52.400;9.818;2023-06-26T10:20:21;25.00;99.90
1948;DHT22;974;52.400;9.818;2023-06-26T10:22:48;24.90;99.90
1948;DHT22;974;52.400;9.818;2023-06-26T10:25:18;24.80;99.90
1948;DHT22;974;52.400;9.818;2023-06-26T10:27:50;24.60;99.90
1948;DHT22;974;52.400;9.818;2023-06-26T10:30:21;24.50;99.90
1948;DHT22;974;52.400;9.818;2023-06-26T10:32:48;24.30;99.90
1948;DHT22;974;52.400;9.818;2023-06-26T10:35:15;24.20;99.90
1948;DHT22;974;52.400;9.818;2023-06-26T10:37:48;24.00;99.90
1948;DHT22;974;52.400;9.818;2023-06-26T10:40:15;23.90;99.90
1948;DHT22;974;52.400;9.818;2023-06-26T10:42:45;23.70;99.90
1948;DHT22;974;52.400;9.818;2023-06-26T10:45:15;23.50;99.90
1948;DHT22;974;52.400;9.818;2023-06-26T10:47:42;23.20;99.90
1948;DHT22;974;52.400;9.818;2023-06-26T10:50:27;23.10;99.90
1948;DHT22;974;52.400;9.818;2023-06-26T10:56:00;22.80;99.90
1948;DHT22;974;52.400;9.818;2023-06-26T10:58:33;22.60;99.90
1948;DHT22;974;52.400;9.818;2023-06-26T11:01:14;22.60;99.90
1948;DHT22;974;52.400;9.818;2023-06-26T11:03:41;22.90;99.90
1948;DHT22;974;52.400;9.818;2023-06-26T11:06:13;23.00;99.90
1948;DHT22;974;52.400;9.818;2023-06-26T11:08:50;22.90;99.90
1948;DHT22;974;52.400;9.818;2023-06-26T11:11:19;22.90;99.90
1948;DHT22;974;52.400;9.818;2023-06-26T11:13:45;22.80;99.90
1948;DHT22;974;52.400;9.818;2023-06-26T11:16:12;22.90;99.90
1948;DHT22;974;52.400;9.818;2023-06-26T11:18:38;22.90;99.90
1948;DHT22;974;52.400;9.818;2023-06-26T11:21:08;22.80;99.90
1948;DHT22;974;52.400;9.818;2023-06-26T11:23:37;22.80;99.90
1948;DHT22;974;52.400;9.818;2023-06-26T11:26:19;22.80;99.90
1948;DHT22;974;52.400;9.818;2023-06-26T11:28:49;22.80;99.90
1948;DHT22;974;52.400;9.818;2023-06-26T11:31:44;22.80;99.90
1948;DHT22;974;52.400;9.818;2023-06-26T11:34:11;22.90;99.90
1948;DHT22;974;52.400;9.818;2023-06-26T11:36:38;22.80;99.90
1948;DHT22;974;52.400;9.818;2023-06-26T11:39:07;22.80;99.90
1948;DHT22;974;52.400;9.818;2023-06-26T11:41:35;22.70;99.90
1948;DHT22;974;52.400;9.818;2023-06-26T11:44:02;22.70;99.90
1948;DHT22;974;52.400;9.818;2023-06-26T11:46:28;22.60;99.90
1948;DHT22;974;52.400;9.818;2023-06-26T11:48:54;22.70;99.90
1948;DHT22;974;52.400;9.818;2023-06-26T11:51:20;22.90;99.90
1948;DHT22;974;52.400;9.818;2023-06-26T11:53:46;23.00;99.90
1948;DHT22;974;52.400;9.818;2023-06-26T11:56:14;23.00;99.90
1948;DHT22;974;52.400;9.818;2023-06-26T11:58:56;23.10;99.90
1948;DHT22;974;52.400;9.818;2023-06-26T12:01:22;23.00;99.90
1948;DHT22;974;52.400;9.818;2023-06-26T12:03:49;22.90;99.90
1948;DHT22;974;52.400;9.818;2023-06-26T12:06:15;23.00;99.90
1948;DHT22;974;52.400;9.818;2023-06-26T12:08:41;23.00;99.90
1948;DHT22;974;52.400;9.818;2023-06-26T12:11:07;22.90;99.90
1948;DHT22;974;52.400;9.818;2023-06-26T12:13:34;22.90;99.90
1948;DHT22;974;52.400;9.818;2023-06-26T12:15:59;23.10;99.90
1948;DHT22;974;52.400;9.818;2023-06-26T12:18:25;23.10;99.90
1948;DHT22;974;52.400;9.818;2023-06-26T12:20:52;23.30;99.90
1948;DHT22;974;52.400;9.818;2023-06-26T12:23:17;23.30;99.90
1948;DHT22;974;52.400;9.818;2023-06-26T12:25:43;23.60;99.90
1948;DHT22;974;52.400;9.818;2023-06-26T12:28:17;24.00;99.90
1948;DHT22;974;52.400;9.818;2023-06-26T12:30:46;24.40;99.90
1948;DHT22;974;52.400;9.818;2023-06-26T12:33:15;24.70;99.90
1948;DHT22;974;52.400;9.818;2023-06-26T12:35:41;25.00;99.90
1948;DHT22;974;52.400;9.818;2023-06-26T12:38:08;25.10;99.90
1948;DHT22;974;52.400;9.818;2023-06-26T12:40:44;25.40;99.90
1948;DHT22;974;52.400;9.818;2023-06-26T12:43:22;25.60;99.90
1948;DHT22;974;52.400;9.818;2023-06-26T12:45:53;25.70;99.90
1948;DHT22;974;52.400;9.818;2023-06-26T12:48:19;25.70;99.90
1948;DHT22;974;52.400;9.818;2023-06-26T12:50:45;25.80;99.90
1948;DHT22;974;52.400;9.818;2023-06-26T12:53:11;25.60;99.90
1948;DHT22;974;52.400;9.818;2023-06-26T12:55:36;25.50;99.90
1948;DHT22;974;52.400;9.818;2023-06-26T12:58:02;25.40;99.90
1948;DHT22;974;52.400;9.818;2023-06-26T13:00:28;25.60;99.90
1948;DHT22;974;52.400;9.818;2023-06-26T13:02:53;25.60;99.90
1948;DHT22;974;52.400;9.818;2023-06-26T13:05:19;25.50;99.90
1948;DHT22;974;52.400;9.818;2023-06-26T13:07:44;25.40;99.90
1948;DHT22;974;52.400;9.818;2023-06-26T13:10:10;25.30;99.90
1948;DHT22;974;52.400;9.818;2023-06-26T13:12:35;25.20;99.90
1948;DHT22;974;52.400;9.818;2023-06-26T13:15:01;25.10;99.90
1948;DHT22;974;52.400;9.818;2023-06-26T13:17:27;24.90;99.90
1948;DHT22;974;52.400;9.818;2023-06-26T13:19:52;24.80;99.90
1948;DHT22;974;52.400;9.818;2023-06-26T13:22:18;24.70;99.90
1948;DHT22;974;52.400;9.818;2023-06-26T13:24:43;24.70;99.90
1948;DHT22;974;52.400;9.818;2023-06-26T13:27:09;24.90;99.90
1948;DHT22;974;52.400;9.818;2023-06-26T13:29:34;25.10;99.90
1948;DHT22;974;52.400;9.818;2023-06-26T13:31:59;25.40;99.90
1948;DHT22;974;52.400;9.818;2023-06-26T13:34:27;25.60;99.90
1948;DHT22;974;52.400;9.818;2023-06-26T13:36:53;25.50;99.90
1948;DHT22;974;52.400;9.818;2023-06-26T13:39:19;25.30;99.90
1948;DHT22;974;52.400;9.818;2023-06-26T13:41:45;25.20;99.90
1948;DHT22;974;52.400;9.818;2023-06-26T13:44:11;25.20;99.90
1948;DHT22;974;52.400;9.818;2023-06-26T13:46:37;25.20;99.90
1948;DHT22;974;52.400;9.818;2023-06-26T13:49:02;25.20;99.90
1948;DHT22;974;52.400;9.818;2023-06-26T13:51:27;25.10;99.90
1948;DHT22;974;52.400;9.818;2023-06-26T13:53:53;25.20;99.90
1948;DHT22;974;52.400;9.818;2023-06-26T13:56:20;25.20;99.90
1948;DHT22;974;52.400;9.818;2023-06-26T13:58:45;25.40;99.90
1948;DHT22;974;52.400;9.818;2023-06-26T14:01:11;25.20;99.90
1948;DHT22;974;52.400;9.818;2023-06-26T14:03:38;25.30;99.90
1948;DHT22;974;52.400;9.818;2023-06-26T14:06:03;25.50;99.90
1948;DHT22;974;52.400;9.818;2023-06-26T14:08:29;25.40;99.90
1948;DHT22;974;52.400;9.818;2023-06-26T14:10:55;25.50;99.90
1948;DHT22;974;52.400;9.818;2023-06-26T14:13:20;25.50;99.90
1948;DHT22;974;52.400;9.818;2023-06-26T14:15:46;25.60;99.90
1948;DHT22;974;52.400;9.818;2023-06-26T14:18:11;25.60;99.90
1948;DHT22;974;52.400;9.818;2023-06-26T14:20:36;25.60;99.90
1948;DHT22;974;52.400;9.818;2023-06-26T14:23:02;25.60;99.90
1948;DHT22;974;52.400;9.818;2023-06-26T14:25:27;26.10;99.90
1948;DHT22;974;52.400;9.818;2023-06-26T14:27:54;27.30;99.90
1948;DHT22;974;52.400;9.818;2023-06-26T14:30:20;27.90;99.90
1948;DHT22;974;52.400;9.818;2023-06-26T14:32:46;28.20;99.90
1948;DHT22;974;52.400;9.818;2023-06-26T14:35:11;27.10;99.90
1948;DHT22;974;52.400;9.818;2023-06-26T14:37:37;26.80;99.90
1948;DHT22;974;52.400;9.818;2023-06-26T14:40:06;26.50;99.90
1948;DHT22;974;52.400;9.818;2023-06-26T14:42:32;26.50;99.90
1948;DHT22;974;52.400;9.818;2023-06-26T14:44:57;26.30;99.90
1948;DHT22;974;52.400;9.818;2023-06-26T14:47:23;26.10;99.90
1948;DHT22;974;52.400;9.818;2023-06-26T14:49:48;25.90;99.90
1948;DHT22;974;52.400;9.818;2023-06-26T14:52:14;25.70;99.90
1948;DHT22;974;52.400;9.818;2023-06-26T14:54:39;25.50;99.90
1948;DHT22;974;52.400;9.818;2023-06-26T14:57:06;25.40;99.90
1948;DHT22;974;52.400;9.818;2023-06-26T14:59:31;25.40;99.90
1948;DHT22;974;52.400;9.818;2023-06-26T15:01:57;25.30;99.90
1948;DHT22;974;52.400;9.818;2023-06-26T15:04:22;25.10;99.90
1948;DHT22;974;52.400;9.818;2023-06-26T15:06:48;24.80;99.90
1948;DHT22;974;52.400;9.818;2023-06-26T15:09:14;24.70;99.90
1948;DHT22;974;52.400;9.818;2023-06-26T15:11:39;24.60;99.90
1948;DHT22;974;52.400;9.818;2023-06-26T15:14:05;24.60;99.90
1948;DHT22;974;52.400;9.818;2023-06-26T15:16:30;24.40;99.90
1948;DHT22;974;52.400;9.818;2023-06-26T15:18:55;24.40;99.90
1948;DHT22;974;52.400;9.818;2023-06-26T15:21:21;24.20;99.90
1948;DHT22;974;52.400;9.818;2023-06-26T15:23:47;24.20;99.90
1948;DHT22;974;52.400;9.818;2023-06-26T15:26:13;24.10;99.90
1948;DHT22;974;52.400;9.818;2023-06-26T15:28:39;24.10;99.90
1948;DHT22;974;52.400;9.818;2023-06-26T15:31:04;24.00;99.90
1948;DHT22;974;52.400;9.818;2023-06-26T15:33:30;24.10;99.90
1948;DHT22;974;52.400;9.818;2023-06-26T15:35:55;24.00;99.90
1948;DHT22;974;52.400;9.818;2023-06-26T15:38:21;24.00;99.90
1948;DHT22;974;52.400;9.818;2023-06-26T15:40:46;24.20;99.90
1948;DHT22;974;52.400;9.818;2023-06-26T15:43:12;24.60;99.90
1948;DHT22;974;52.400;9.818;2023-06-26T15:45:37;25.00;99.90
1948;DHT22;974;52.400;9.818;2023-06-26T15:48:03;24.90;99.90
1948;DHT22;974;52.400;9.818;2023-06-26T15:50:28;24.60;99.90
1948;DHT22;974;52.400;9.818;2023-06-26T15:52:54;24.40;99.90
1948;DHT22;974;52.400;9.818;2023-06-26T15:55:20;24.30;99.90
1948;DHT22;974;52.400;9.818;2023-06-26T15:57:45;24.20;99.90
1948;DHT22;974;52.400;9.818;2023-06-26T16:00:11;24.10;99.90
1948;DHT22;974;52.400;9.818;2023-06-26T16:02:37;24.00;99.90
1948;DHT22;974;52.400;9.818;2023-06-26T16:05:03;23.90;99.90
1948;DHT22;974;52.400;9.818;2023-06-26T16:07:29;23.80;99.90
1948;DHT22;974;52.400;9.818;2023-06-26T16:09:55;23.80;99.90
1948;DHT22;974;52.400;9.818;2023-06-26T16:12:21;23.70;99.90
1948;DHT22;974;52.400;9.818;2023-06-26T16:14:46;23.70;99.90
1948;DHT22;974;52.400;9.818;2023-06-26T16:17:12;23.70;99.90
1948;DHT22;974;52.400;9.818;2023-06-26T16:19:38;23.60;99.90